Latest Coastal Weather Observations for Mandurah

IDW60701

Issued at 8:42 am WST Saturday 30 May 2015 (issued every 10 minutes, with the page automatically refreshed every 10 minutes)

About coastal observations | Map of coastal stations | Coastal observations for WA | Marine services | Other Formats
Station Details ID: 009977 Name: MANDURAH Lat: -32.52 Lon: 115.71 Height: 3.0 m
Data from the previous 72 hours. | See also: Recent months at Mandurah
Date/Time
WST
Temp

°C
Wind Pressure Rain
since 9am
mm
Weather Cloud Vis
km
Sea
Height
m
Swell
Dir
 
Speed
knots
Gust
knots
hPa Trend Height
m
Period
s
Dir
30/08:30am 11.8 SE 4 6 1026.8 - 0.0 - - - - - - -
30/08:00am 11.5 SE 4 6 1026.6 - 0.0 - - - - - - -
30/07:30am 11.1 SE 4 5 1026.6 - 0.0 - - - - - - -
30/07:00am 11.1 SSE 3 5 1026.6 - 0.0 - - - - - - -
30/06:30am 10.8 SE 4 6 1026.4 - 0.0 - - - - - - -
30/06:00am 10.4 SE 4 5 1026.2 - 0.0 - - - - - - -
30/05:30am 9.9 ESE 3 4 1026.1 - 0.0 - - - - - - -
30/05:00am 9.9 ESE 3 5 1025.9 - 0.0 - - - - - - -
30/04:30am 10.2 ESE 2 4 1026.1 - 0.0 - - - - - - -
30/04:00am 10.7 SE 1 2 1026.1 - 0.0 - - - - - - -
30/03:30am 10.9 SE 2 4 1026.1 - 0.0 - - - - - - -
30/03:00am 11.3 SE 4 5 1026.1 - 0.0 - - - - - - -
30/02:30am 11.3 SE 3 5 1026.2 - 0.0 - - - - - - -
30/02:00am 11.6 SE 4 5 1025.9 - 0.0 - - - - - - -
30/01:30am 12.1 SE 5 7 1025.9 - 0.0 - - - - - - -
30/01:00am 12.2 SE 5 6 1026.0 - 0.0 - - - - - - -
30/12:30am 12.4 SSE 5 7 1026.2 - 0.0 - - - - - - -
30/12:00am 12.2 SE 5 6 1026.2 - 0.0 - - - - - - -
 
Date/Time
WST
Temp

°C
Wind Pressure Rain
since 9am
mm
Weather Cloud Vis
km
Sea
Height
m
Swell
Dir
 
Speed
knots
Gust
knots
hPa Trend Height
m
Period
s
Dir
29/11:30pm 12.7 SE 5 8 1026.4 - 0.0 - - - - - - -
29/11:00pm 12.7 SE 5 8 1026.3 - 0.0 - - - - - - -
29/10:30pm 13.1 SE 5 9 1026.3 - 0.0 - - - - - - -
29/10:00pm 13.3 SE 5 7 1026.4 - 0.0 - - - - - - -
29/09:30pm 13.7 SE 5 8 1026.5 - 0.0 - - - - - - -
29/09:00pm 13.4 SE 5 7 1026.5 - 0.0 - - - - - - -
29/08:30pm 14.0 SE 5 7 1026.5 - 0.0 - - - - - - -
29/08:00pm 14.5 SSE 6 8 1026.4 - 0.0 - - - - - - -
29/07:30pm 14.9 SSE 6 9 1026.2 - 0.0 - - - - - - -
29/07:00pm 15.4 SSE 6 9 1025.7 - 0.0 - - - - - - -
29/06:30pm 15.6 S 7 11 1025.3 - 0.0 - - - - - - -
29/06:00pm 15.8 S 8 11 1024.9 - 0.0 - - - - - - -
29/05:30pm 16.9 S 5 7 1024.5 - 0.0 - - - - - - -
29/05:00pm 17.6 SSE 5 7 1024.1 - 0.0 - - - - - - -
29/04:30pm 18.0 S 6 9 1024.0 - 0.0 - - - - - - -
29/04:00pm 18.2 S 7 10 1023.9 - 0.0 - - - - - - -
29/03:30pm 18.4 S 7 10 1023.9 - 0.0 - - - - - - -
29/03:00pm 18.4 S 7 10 1023.9 - 0.0 - - - - - - -
29/02:30pm 18.7 SSE 6 10 1023.8 - 0.0 - - - - - - -
29/02:00pm 18.7 S 5 8 1024.0 - 0.0 - - - - - - -
29/01:30pm 18.2 S 7 10 1024.2 - 0.0 - - - - - - -
29/01:00pm 18.2 S 5 9 1024.5 - 0.0 - - - - - - -
29/12:30pm 18.6 ESE 4 8 1025.0 - 0.0 - - - - - - -
29/12:00pm 18.0 SE 4 11 1025.4 - 0.0 - - - - - - -
29/11:30am 17.6 ESE 4 6 1025.8 - 0.0 - - - - - - -
29/11:00am 17.2 E 5 7 1026.3 - 0.0 - - - - - - -
29/10:30am 16.2 ESE 5 8 1026.7 - 0.0 - - - - - - -
29/10:00am 14.6 ESE 6 9 1027.0 - 0.0 - - - - - - -
29/09:30am 13.6 E 6 8 1026.9 - 0.0 - - - - - - -
29/09:00am 12.5 E 7 11 1027.0 - 0.0 - - - - - - -
29/08:30am 11.7 ESE 6 10 1026.9 - 0.0 - - - - - - -
29/08:00am 10.2 SE 4 5 1026.7 - 0.0 - - - - - - -
29/07:30am 9.3 SE 3 5 1026.4 - 0.0 - - - - - - -
29/07:00am 9.3 SE 3 5 1026.3 - 0.0 - - - - - - -
29/06:30am 9.3 SE 4 6 1026.1 - 0.0 - - - - - - -
29/06:00am 9.1 SE 4 6 1025.9 - 0.0 - - - - - - -
29/05:30am 8.9 ESE 4 5 1025.9 - 0.0 - - - - - - -
29/05:00am 9.6 SE 4 5 1025.7 - 0.0 - - - - - - -
29/04:30am 9.7 SE 4 6 1025.7 - 0.0 - - - - - - -
29/04:00am 9.7 ESE 4 6 1025.5 - 0.0 - - - - - - -
29/03:30am 9.8 ESE 3 3 1025.5 - 0.0 - - - - - - -
29/03:00am 10.6 ESE 5 7 1025.5 - 0.0 - - - - - - -
29/02:30am 10.8 ESE 6 8 1025.5 - 0.0 - - - - - - -
29/02:00am 11.0 ESE 6 9 1025.5 - 0.0 - - - - - - -
29/01:30am 11.2 ESE 5 8 1025.5 - 0.0 - - - - - - -
29/01:00am 11.6 ESE 7 11 1025.4 - 0.0 - - - - - - -
29/12:30am 12.0 ESE 8 11 1025.5 - 0.0 - - - - - - -
29/12:00am 12.2 SE 5 6 1025.5 - 0.0 - - - - - - -
 
Date/Time
WST
Temp

°C
Wind Pressure Rain
since 9am
mm
Weather Cloud Vis
km
Sea
Height
m
Swell
Dir
 
Speed
knots
Gust
knots
hPa Trend Height
m
Period
s
Dir
28/11:30pm 12.8 SE 6 7 1025.5 - 0.0 - - - - - - -
28/11:00pm 12.9 SE 5 7 1025.4 - 0.0 - - - - - - -
28/10:30pm 13.2 SE 6 8 1025.5 - 0.0 - - - - - - -
28/10:00pm 13.3 SSE 7 10 1025.7 - 0.0 - - - - - - -
28/09:30pm 13.4 SSE 6 9 1025.7 - 0.0 - - - - - - -
28/09:00pm 13.5 SSE 7 10 1025.4 - 0.0 - - - - - - -
28/08:30pm 13.7 SSE 7 10 1025.2 - 0.0 - - - - - - -
28/08:00pm 13.9 SSE 6 9 1025.0 - 0.0 - - - - - - -
28/07:30pm 14.1 SSE 6 9 1024.7 - 0.0 - - - - - - -
28/07:00pm 14.5 SSE 7 10 1024.3 - 0.0 - - - - - - -
28/06:30pm 14.8 SSE 9 13 1024.0 - 0.0 - - - - - - -
28/06:00pm 15.3 SE 7 11 1023.6 - 0.0 - - - - - - -
28/05:30pm 16.0 SE 7 12 1023.3 - 0.0 - - - - - - -
28/05:00pm 16.8 SE 7 11 1023.0 - 0.0 - - - - - - -
28/04:30pm 17.4 SSE 6 9 1022.9 - 0.0 - - - - - - -
28/04:00pm 17.5 S 5 8 1022.8 - 0.0 - - - - - - -
28/03:30pm 17.6 SSE 6 9 1022.7 - 0.0 - - - - - - -
28/03:00pm 17.9 SSE 6 8 1022.8 - 0.0 - - - - - - -
28/02:30pm 18.0 S 6 9 1022.9 - 0.0 - - - - - - -
28/02:00pm 18.1 S 6 10 1023.0 - 0.0 - - - - - - -
28/01:30pm 18.1 SSE 6 9 1023.1 - 0.0 - - - - - - -
28/01:00pm 17.7 SSE 5 8 1023.4 - 0.0 - - - - - - -
28/12:30pm 17.6 SSE 5 8 1023.7 - 0.0 - - - - - - -
28/12:00pm 17.7 ESE 5 9 1024.1 - 0.0 - - - - - - -
28/11:30am 17.1 SE 6 9 1024.4 - 0.0 - - - - - - -
28/11:00am 16.3 SE 5 8 1024.8 - 0.0 - - - - - - -
28/10:30am 16.2 SE 5 9 1024.9 - 0.0 - - - - - - -
28/10:00am 15.1 SE 3 6 1025.0 - 0.0 - - - - - - -
28/09:30am 14.5 SE 4 5 1025.0 - 0.0 - - - - - - -
28/09:00am 13.5 SE 5 7 1024.8 - 0.0 - - - - - - -
28/08:30am 13.1 SSE 6 9 1024.6 - 0.0 - - - - - - -
28/08:00am 13.1 SSE 3 5 1024.2 - 0.0 - - - - - - -
28/07:30am 12.7 SE 4 5 1023.9 - 0.0 - - - - - - -
28/07:00am 12.5 SE 4 5 1023.5 - 0.0 - - - - - - -
28/06:30am 12.6 SE 4 6 1023.2 - 0.0 - - - - - - -
28/06:00am 12.4 SE 5 7 1022.9 - 0.0 - - - - - - -
28/05:30am 12.2 SE 5 8 1022.7 - 0.0 - - - - - - -
28/05:00am 11.8 SE 5 7 1022.6 - 0.0 - - - - - - -
28/04:30am 11.3 SE 4 6 1022.5 - 0.0 - - - - - - -
28/04:00am 11.4 SSE 5 7 1022.5 - 0.0 - - - - - - -
28/03:30am 11.5 SE 5 7 1022.3 - 0.0 - - - - - - -
28/03:00am 11.6 SSE 5 8 1022.4 - 0.0 - - - - - - -
28/02:30am 10.9 SSE 5 7 1022.5 - 0.0 - - - - - - -
28/02:00am 11.0 SSE 3 5 1022.4 - 0.0 - - - - - - -
28/01:30am 10.9 CALM 0 0 1022.1 - 0.0 - - - - - - -
28/01:00am 10.8 ENE 1 3 1022.1 - 0.0 - - - - - - -
28/12:30am 10.7 ENE 2 3 1022.3 - 0.0 - - - - - - -
28/12:00am 11.0 ENE 2 3 1022.3 - 0.0 - - - - - - -
 
Date/Time
WST
Temp

°C
Wind Pressure Rain
since 9am
mm
Weather Cloud Vis
km
Sea
Height
m
Swell
Dir
 
Speed
knots
Gust
knots
hPa Trend Height
m
Period
s
Dir
27/11:30pm 11.7 SE 2 3 1022.4 - 0.0 - - - - - - -
27/11:00pm 12.3 ENE 6 8 1022.2 - 0.0 - - - - - - -
27/10:30pm 11.8 E 3 5 1022.3 - 0.0 - - - - - - -
27/10:00pm 12.3 E 1 2 1022.4 - 0.0 - - - - - - -
27/09:30pm 12.4 E 2 3 1022.5 - 0.0 - - - - - - -
27/09:00pm 12.9 ESE 2 3 1022.4 - 0.0 - - - - - - -
27/08:30pm 13.3 ESE 2 3 1022.3 - 0.0 - - - - - - -
27/08:00pm 13.2 ESE 1 2 1022.2 - 0.0 - - - - - - -
27/07:30pm 13.3 ESE 2 3 1022.1 - 0.0 - - - - - - -
27/07:00pm 14.4 SE 4 5 1021.8 - 0.0 - - - - - - -
27/06:30pm 15.0 SE 2 2 1021.6 - 0.0 - - - - - - -
27/06:00pm 15.7 SE 5 7 1021.4 - 0.0 - - - - - - -
27/05:30pm 16.3 SE 5 8 1021.3 - 0.0 - - - - - - -
27/05:00pm 16.5 SSE 6 9 1021.3 - 0.0 - - - - - - -
27/04:30pm 16.6 S 7 11 1021.3 - 0.0 - - - - - - -
27/04:00pm 17.2 S 8 14 1021.2 - 0.0 - - - - - - -
27/03:30pm 17.7 S 9 13 1021.1 - 0.0 - - - - - - -
27/03:00pm 17.8 S 9 14 1021.1 - 0.0 - - - - - - -
27/02:30pm 17.9 SSE 10 14 1021.2 - 0.0 - - - - - - -
27/02:00pm 18.1 S 8 14 1021.4 - 0.0 - - - - - - -
27/01:30pm 17.7 SSE 9 13 1021.6 - 0.0 - - - - - - -
27/01:00pm 17.4 SSE 8 13 1021.9 - 0.0 - - - - - - -
27/12:30pm 17.4 SSE 8 13 1022.4 - 0.0 - - - - - - -
27/12:00pm 17.2 SE 10 14 1022.9 - 0.0 - - - - - - -
27/11:30am 16.9 SE 9 15 1023.3 - 0.0 - - - - - - -
27/11:00am 16.4 SE 9 15 1023.7 - 0.0 - - - - - - -
27/10:30am 15.7 SE 6 10 1024.2 - 0.0 - - - - - - -
27/10:00am 15.1 ESE 6 8 1024.3 - 0.0 - - - - - - -
27/09:30am 14.1 SE 4 6 1024.4 - 0.0 - - - - - - -
27/09:00am 12.8 ESE 3 5 1024.1 - 0.0 - - - - - - -

Other Formats:

Comma delimited format used in spreadsheet applications
http://www.bom.gov.au/fwo/IDW60701/IDW60701.94605.axf

JavaScript Object Notation format (JSON) in row-major order
http://www.bom.gov.au/fwo/IDW60701/IDW60701.94605.json